AYMO

Momote Airport

Papua New Guinea

AYMO 112100Z 32010KT 9999 FEW018 BKN140 27/25 Q1007

Observed Flight Rules
Dec-11 @ 21:00 UTC (2 hours ago) Visual Flight Rules
Wind Visibility Clouds
320° at 10 knots 10,000+ meters
  • Few at 1,800' AGL
  • Broken at 14,000' AGL
Temperatures Readings
Current 27°C / 81°F
Dewpoint 25°C / 77°F
Humidity 89%
Altimeter 29.73" Hg
Pressure 1007 hPa
Elevation 4
Observed Flight Rules
Dec-11 @ 21:00 UTC
(2 hours ago)
VFR
Wind Visibility
320° at 10 knots 10,000+ meters
Clouds
  • Few at 1,800' AGL
  • Broken at 14,000' AGL
Temperature Dewpoint
27°C / 81°F 25°C / 77°F
Humidity Altimeter Pressure
89% 29.73" Hg 1007 hPa